Time;durP1;ratioP1;P1;durP2;ratioP2;P2;SDS_P1;SDS_P2;PMS_P1;PMS_P2;Temp;Humidity;BMP_temperature;BMP_pressure;BME280_temperature;BME280_humidity;BME280_pressure;Samples;Min_cycle;Max_cycle;Signal;HPM_P1;HPM_P2
2021/07/06 00:00:32;;;;;;;;;2.00;2.00;;;;;22.30;59.54;99613.53;5077745;28;47110;-82
2021/07/06 00:02:59;;;;;;;;;2.50;2.00;;;;;22.28;59.07;99590.78;5063947;28;46258;-79
2021/07/06 00:05:24;;;;;;;;;1.00;1.00;;;;;22.26;59.61;99599.00;5080885;28;45678;-82
2021/07/06 00:07:50;;;;;;;;;3.25;2.50;;;;;22.26;59.73;99611.50;5075814;28;45583;-80
2021/07/06 00:10:19;;;;;;;;;2.00;2.00;;;;;22.25;60.10;99615.19;5075554;28;45637;-81
2021/07/06 00:12:45;;;;;;;;;2.00;2.00;;;;;22.13;60.13;99588.38;5075682;28;45864;-80
2021/07/06 00:15:14;;;;;;;;;1.25;1.25;;;;;22.24;59.66;99600.25;5075355;28;45730;-81
2021/07/06 00:17:40;;;;;;;;;1.00;1.00;;;;;22.12;60.24;99570.72;5075073;28;45498;-81
2021/07/06 00:20:09;;;;;;;;;1.00;1.00;;;;;22.17;59.56;99571.72;5074881;28;46456;-81
2021/07/06 00:22:35;;;;;;;;;1.00;1.00;;;;;22.18;59.96;99575.22;5074942;28;46369;-80
2021/07/06 00:25:01;;;;;;;;;1.00;0.75;;;;;22.19;60.07;99571.50;5074748;28;45610;-84
2021/07/06 00:27:26;;;;;;;;;1.00;1.00;;;;;22.21;59.99;99568.63;5075073;28;45803;-80
2021/07/06 00:29:51;;;;;;;;;1.00;1.00;;;;;22.20;59.63;99567.81;5075154;28;45616;-83
2021/07/06 00:32:17;;;;;;;;;1.25;1.00;;;;;22.17;59.43;99562.91;5074762;28;46306;-82
2021/07/06 00:34:42;;;;;;;;;1.00;1.00;;;;;22.15;59.88;99565.75;5074987;28;45584;-80
2021/07/06 00:37:07;;;;;;;;;1.00;1.00;;;;;22.13;59.76;99570.47;5075430;28;45528;-82
2021/07/06 00:39:33;;;;;;;;;1.00;1.00;;;;;22.13;59.32;99567.81;5075004;28;45725;-84
2021/07/06 00:45:21;;;;;;;;;1.00;1.00;;;;;22.09;59.49;99563.94;5075322;28;45529;-78
2021/07/06 00:47:46;;;;;;;;;1.50;1.00;;;;;22.06;59.88;99571.53;5074637;28;45597;-81
2021/07/06 00:50:16;;;;;;;;;1.00;1.00;;;;;22.07;59.83;99582.00;5074693;28;46516;-80
2021/07/06 00:52:41;;;;;;;;;1.00;0.00;;;;;22.07;59.23;99582.00;5074504;28;46397;-79
2021/07/06 00:55:07;;;;;;;;;0.25;0.25;;;;;22.04;59.74;99582.41;5074728;28;46068;-83
2021/07/06 00:57:34;;;;;;;;;0.25;0.25;;;;;22.02;59.67;99583.66;5074852;28;46069;-82
2021/07/06 01:00:03;;;;;;;;;1.00;1.00;;;;;21.97;59.22;99572.81;5074236;28;47418;-83
2021/07/06 01:02:29;;;;;;;;;1.00;1.00;;;;;21.92;59.93;99572.53;5056071;28;47571;-83
2021/07/06 01:04:54;;;;;;;;;1.00;1.00;;;;;21.89;59.19;99580.97;5056201;28;45724;-83
2021/07/06 01:07:21;;;;;;;;;0.00;0.00;;;;;21.93;59.27;99593.69;5074758;28;45567;-81
2021/07/06 01:09:47;;;;;;;;;0.25;0.25;;;;;21.91;59.51;99594.94;5074187;28;47325;-82
2021/07/06 01:15:35;;;;;;;;;0.00;0.00;;;;;21.80;59.46;99585.72;5074203;28;45681;-79
2021/07/06 01:18:16;;;;;;;;;0.00;0.00;;;;;21.78;59.32;99593.09;5074541;28;45575;-79
2021/07/06 01:20:48;;;;;;;;;0.50;0.00;;;;;21.73;59.05;99595.56;5074089;28;47231;-78
2021/07/06 01:23:17;;;;;;;;;0.00;0.00;;;;;21.77;58.93;99613.59;5073661;28;47276;-82
2021/07/06 01:25:43;;;;;;;;;0.00;0.00;;;;;21.67;59.37;99620.38;5074719;28;45690;-80
2021/07/06 01:28:09;;;;;;;;;0.00;0.00;;;;;21.68;58.95;99614.84;5075119;28;45654;-81
2021/07/06 01:30:36;;;;;;;;;1.00;0.25;;;;;21.66;59.08;99600.06;5076055;28;45521;-81
2021/07/06 01:33:02;;;;;;;;;0.00;0.00;;;;;21.65;59.00;99601.06;5075245;28;47089;-81
2021/07/06 01:35:28;;;;;;;;;0.00;0.00;;;;;21.61;59.29;99614.00;5075464;28;45556;-81
2021/07/06 01:37:57;;;;;;;;;0.00;0.00;;;;;21.57;59.09;99603.97;5075706;28;45856;-80
2021/07/06 01:40:24;;;;;;;;;0.00;0.00;;;;;21.59;58.98;99615.25;5080484;28;45568;-78
2021/07/06 01:42:51;;;;;;;;;0.75;0.00;;;;;21.52;59.25;99606.41;5080135;28;46226;-80
2021/07/06 01:45:19;;;;;;;;;0.00;0.00;;;;;21.52;59.26;99617.09;5080669;28;45627;-80
2021/07/06 01:47:48;;;;;;;;;0.75;0.00;;;;;21.50;59.11;99611.13;5080701;28;45554;-80
2021/07/06 01:50:17;;;;;;;;;0.00;0.00;;;;;21.29;58.79;99582.81;5075565;28;45703;-80
2021/07/06 01:52:44;;;;;;;;;0.00;0.00;;;;;21.42;58.90;99614.00;5073765;28;46478;-78
2021/07/06 01:55:12;;;;;;;;;0.00;0.00;;;;;21.38;58.85;99620.75;5074119;28;45661;-81
2021/07/06 02:01:00;;;;;;;;;0.00;0.00;;;;;21.24;58.31;99635.91;5065549;28;45778;-79
2021/07/06 02:03:26;;;;;;;;;0.00;0.00;;;;;21.28;58.42;99677.09;5077458;28;45979;-78
2021/07/06 02:05:58;;;;;;;;;0.00;0.00;;;;;21.20;58.18;99662.13;5077048;28;45707;-81
2021/07/06 02:08:24;;;;;;;;;0.00;0.00;;;;;21.19;58.47;99655.16;5077360;28;45532;-82
2021/07/06 02:10:53;;;;;;;;;0.00;0.00;;;;;21.14;58.35;99662.06;5076757;28;47567;-80
2021/07/06 02:13:23;;;;;;;;;0.00;0.00;;;;;21.13;58.44;99666.56;5077404;28;45893;-80
2021/07/06 02:15:50;;;;;;;;;0.00;0.00;;;;;21.07;58.59;99674.53;5077390;28;45639;-81
2021/07/06 02:18:19;;;;;;;;;0.25;0.00;;;;;21.01;58.72;99670.00;5077258;28;45681;-80
2021/07/06 02:20:45;;;;;;;;;0.00;0.00;;;;;20.97;58.52;99692.72;5076927;28;46311;-82
2021/07/06 02:23:11;;;;;;;;;0.00;0.00;;;;;20.99;58.97;99699.53;5076920;28;45623;-81
2021/07/06 02:25:36;;;;;;;;;0.00;0.00;;;;;20.93;59.23;99694.97;5077245;28;45530;-77
2021/07/06 02:28:02;;;;;;;;;0.00;0.00;;;;;20.80;59.34;99686.91;5077176;28;45673;-80
2021/07/06 02:30:29;;;;;;;;;0.00;0.00;;;;;20.82;59.08;99720.34;5076675;28;46612;-79
2021/07/06 02:32:54;;;;;;;;;0.00;0.00;;;;;20.76;58.61;99701.66;5075170;28;46343;-80
2021/07/06 02:35:21;;;;;;;;;0.00;0.00;;;;;20.76;58.53;99705.13;5076408;28;45492;-80
2021/07/06 02:37:47;;;;;;;;;1.00;0.00;;;;;20.71;58.87;99699.59;5076980;28;45537;-80
2021/07/06 02:40:15;;;;;;;;;0.00;0.00;;;;;20.71;58.65;99688.09;5076601;28;46479;-77
2021/07/06 02:46:02;;;;;;;;;0.00;0.00;;;;;20.61;58.96;99679.66;5076786;28;45624;-80
2021/07/06 02:48:27;;;;;;;;;0.00;0.00;;;;;20.63;59.17;99688.25;5058173;28;45920;-78
2021/07/06 02:50:53;;;;;;;;;0.00;0.00;;;;;20.60;59.07;99693.97;5076604;28;46500;-79
2021/07/06 02:53:18;;;;;;;;;0.00;0.00;;;;;20.59;59.35;99705.66;5076324;28;46166;-82
2021/07/06 02:55:44;;;;;;;;;0.00;0.00;;;;;20.41;59.03;99684.84;5076694;28;45628;-80
2021/07/06 03:01:31;;;;;;;;;0.00;0.00;;;;;20.45;59.64;99699.44;5070655;28;45677;-81
2021/07/06 03:03:57;;;;;;;;;0.00;0.00;;;;;20.45;59.64;99710.91;5076737;28;45700;-81
2021/07/06 03:06:22;;;;;;;;;0.00;0.00;;;;;20.43;59.54;99715.59;5076702;28;45653;-81
2021/07/06 03:08:49;;;;;;;;;0.00;0.00;;;;;20.40;59.78;99713.31;5076576;28;45746;-79
2021/07/06 03:11:14;;;;;;;;;0.00;0.00;;;;;20.18;59.91;99682.44;5076011;28;46670;-80
2021/07/06 03:13:40;;;;;;;;;1.00;0.00;;;;;20.39;60.24;99716.16;5076594;28;45600;-80
2021/07/06 03:16:06;;;;;;;;;0.00;0.00;;;;;20.29;59.56;99694.38;5076702;28;45647;-82
2021/07/06 03:18:31;;;;;;;;;0.00;0.00;;;;;20.26;59.89;99695.56;5077386;28;45729;-81
2021/07/06 03:20:57;;;;;;;;;0.00;0.00;;;;;20.24;59.90;99686.16;5078271;28;46877;-81
2021/07/06 03:23:22;;;;;;;;;0.00;0.00;;;;;20.14;59.60;99683.81;5077707;28;46123;-80
2021/07/06 03:25:48;;;;;;;;;0.00;0.00;;;;;20.16;59.94;99686.28;5078443;28;45537;-80
2021/07/06 03:31:34;;;;;;;;;0.00;0.00;;;;;20.22;59.60;99690.84;5078804;28;46076;-78
2021/07/06 03:34:00;;;;;;;;;0.00;0.00;;;;;20.07;59.73;99680.31;5082072;28;45592;-81
2021/07/06 03:36:25;;;;;;;;;0.00;0.00;;;;;20.16;59.76;99702.25;5082193;28;45623;-80
2021/07/06 03:38:50;;;;;;;;;0.00;0.00;;;;;20.13;60.05;99687.50;5080642;28;45770;-78
2021/07/06 03:41:16;;;;;;;;;0.00;0.00;;;;;20.10;59.82;99674.59;5059287;28;46560;-79
2021/07/06 03:43:41;;;;;;;;;0.00;0.00;;;;;19.95;59.59;99669.34;5076149;28;46252;-76
2021/07/06 03:46:06;;;;;;;;;0.00;0.00;;;;;19.96;59.90;99684.31;5075867;28;45710;-81
2021/07/06 03:48:32;;;;;;;;;0.00;0.00;;;;;19.96;59.76;99686.97;5076075;28;45612;-80
2021/07/06 03:50:57;;;;;;;;;0.00;0.00;;;;;19.94;59.51;99704.13;5075808;28;47259;-79
2021/07/06 03:53:22;;;;;;;;;0.00;0.00;;;;;19.89;59.24;99715.31;5076000;28;45632;-76
2021/07/06 03:55:48;;;;;;;;;0.00;0.00;;;;;19.86;59.81;99704.25;5075712;28;45436;-77
2021/07/06 04:01:35;;;;;;;;;0.00;0.00;;;;;19.75;59.49;99713.56;5074381;28;45670;-82
2021/07/06 04:04:01;;;;;;;;;0.25;0.00;;;;;19.65;59.22;99713.03;5075952;28;46001;-78
2021/07/06 04:06:26;;;;;;;;;0.00;0.00;;;;;19.64;59.23;99719.38;5075404;28;45507;-79
2021/07/06 04:08:51;;;;;;;;;0.00;0.00;;;;;19.45;58.41;99691.59;5056655;28;45507;-80
2021/07/06 04:11:17;;;;;;;;;0.00;0.00;;;;;19.52;58.54;99719.06;5075412;28;46467;-80
2021/07/06 04:17:04;;;;;;;;;0.50;0.00;;;;;19.47;58.61;99717.97;5075133;28;45595;-80
2021/07/06 04:19:30;;;;;;;;;0.00;0.00;;;;;19.35;58.14;99717.59;5075570;28;45714;-80
2021/07/06 04:21:55;;;;;;;;;2.00;0.00;;;;;19.39;58.08;99734.81;5074576;28;46667;-78
2021/07/06 04:24:20;;;;;;;;;1.25;0.00;;;;;19.42;58.41;99733.63;5075274;28;45651;-81
2021/07/06 04:26:46;;;;;;;;;0.50;0.50;;;;;19.42;58.34;99753.03;5075372;28;45784;-78
2021/07/06 04:29:12;;;;;;;;;0.75;0.75;;;;;19.40;57.79;99744.44;5075168;28;45803;-82
2021/07/06 04:31:38;;;;;;;;;1.25;0.00;;;;;19.39;58.46;99747.25;5074895;28;46351;-79
2021/07/06 04:34:08;;;;;;;;;2.50;0.75;;;;;19.35;58.07;99736.19;5075048;28;45584;-83
2021/07/06 04:36:33;;;;;;;;;1.25;0.00;;;;;19.19;57.90;99723.13;5074982;28;45821;-83
2021/07/06 04:38:58;;;;;;;;;1.00;0.00;;;;;19.23;58.02;99732.38;5075198;28;45639;-82
2021/07/06 04:41:24;;;;;;;;;1.00;1.00;;;;;19.28;57.74;99751.22;5074848;28;46345;-79
2021/07/06 04:47:11;;;;;;;;;1.00;0.25;;;;;19.19;58.05;99753.16;5074751;28;45612;-82
2021/07/06 04:49:36;;;;;;;;;0.50;0.00;;;;;19.23;57.59;99769.53;5074991;28;45646;-79
2021/07/06 04:52:02;;;;;;;;;0.00;0.00;;;;;19.18;57.38;99770.09;5075298;28;46383;-81
2021/07/06 04:54:31;;;;;;;;;1.50;0.50;;;;;19.05;57.28;99758.50;5056445;28;47237;-78
2021/07/06 04:56:56;;;;;;;;;1.50;1.00;;;;;18.92;57.52;99742.38;5056181;28;45884;-81
2021/07/06 04:59:22;;;;;;;;;1.25;0.50;;;;;19.09;57.71;99775.72;5075053;28;45509;-78
2021/07/06 05:01:47;;;;;;;;;2.00;0.00;;;;;18.82;57.08;99732.88;5074213;28;45609;-82
2021/07/06 05:04:14;;;;;;;;;2.00;1.00;;;;;19.04;57.28;99772.78;5074713;28;45664;-82
2021/07/06 05:06:41;;;;;;;;;1.00;1.00;;;;;19.02;56.97;99767.66;5074291;28;45644;-79
2021/07/06 05:09:06;;;;;;;;;1.00;1.00;;;;;19.02;57.09;99765.00;5074495;28;45675;-76
2021/07/06 05:11:32;;;;;;;;;1.25;1.00;;;;;19.01;57.28;99770.47;5074474;28;45581;-80
2021/07/06 05:17:19;;;;;;;;;1.75;0.00;;;;;18.96;57.27;99762.25;5074131;28;45534;-76
2021/07/06 05:19:44;;;;;;;;;1.00;1.00;;;;;19.01;57.12;99767.81;5074588;28;45581;-78
2021/07/06 05:22:09;;;;;;;;;1.00;0.75;;;;;19.00;57.08;99768.84;5074609;28;46800;-80
2021/07/06 05:24:35;;;;;;;;;1.75;0.25;;;;;18.99;57.08;99780.47;5075098;28;46192;-80
2021/07/06 05:27:00;;;;;;;;;2.00;1.25;;;;;18.97;56.62;99775.34;5075225;28;45663;-80
2021/07/06 05:32:48;;;;;;;;;1.00;1.00;;;;;18.84;56.62;99791.91;5075486;28;46173;-81
2021/07/06 05:35:14;;;;;;;;;1.00;0.00;;;;;18.81;56.14;99784.31;5063579;28;47003;-81
2021/07/06 05:37:40;;;;;;;;;2.50;0.25;;;;;18.83;56.50;99794.75;5084153;28;45509;-79
2021/07/06 05:40:07;;;;;;;;;1.00;1.00;;;;;18.79;56.44;99817.34;5083860;27;45868;-82
2021/07/06 05:42:34;;;;;;;;;3.75;1.00;;;;;18.80;56.47;99801.22;5083813;28;45659;-82
2021/07/06 05:45:01;;;;;;;;;1.25;1.00;;;;;18.77;55.83;99800.78;5065332;28;47116;-80
2021/07/06 05:47:26;;;;;;;;;1.00;1.00;;;;;18.67;56.06;99803.72;5060067;28;45758;-79
2021/07/06 05:49:51;;;;;;;;;1.00;0.25;;;;;18.63;56.17;99797.09;5077821;28;45509;-81
2021/07/06 05:52:17;;;;;;;;;1.50;1.00;;;;;18.72;56.38;99809.28;5077560;28;45552;-82
2021/07/06 05:54:45;;;;;;;;;1.00;1.00;;;;;18.60;56.00;99788.69;5077243;28;47364;-81
2021/07/06 05:57:10;;;;;;;;;1.00;1.00;;;;;18.65;56.52;99796.91;5077165;28;45694;-80
2021/07/06 06:02:58;;;;;;;;;1.00;1.00;;;;;18.67;56.34;99810.84;5066145;28;45676;-78
2021/07/06 06:05:23;;;;;;;;;1.25;1.00;;;;;18.71;56.11;99823.56;5077266;28;47052;-78
2021/07/06 06:07:49;;;;;;;;;1.00;1.00;;;;;18.71;55.83;99831.53;5077635;28;45592;-78
2021/07/06 06:10:15;;;;;;;;;1.50;1.00;;;;;18.69;56.15;99830.88;5059763;28;46007;-78
2021/07/06 06:12:42;;;;;;;;;2.50;2.00;;;;;18.71;56.17;99836.00;5077632;28;45856;-78
2021/07/06 06:15:09;;;;;;;;;3.00;2.00;;;;;18.66;55.89;99830.41;5078106;28;45980;-78
2021/07/06 06:17:36;;;;;;;;;2.00;2.00;;;;;18.67;56.28;99816.97;5077756;28;45637;-79
2021/07/06 06:20:04;;;;;;;;;3.75;1.00;;;;;18.76;55.94;99828.31;5078063;28;45489;-80
2021/07/06 06:22:29;;;;;;;;;2.75;1.75;;;;;18.83;56.12;99834.56;5077751;28;46560;-80
2021/07/06 06:24:54;;;;;;;;;1.75;1.50;;;;;18.84;55.48;99841.50;5077866;28;45812;-79
2021/07/06 06:27:20;;;;;;;;;1.00;1.00;;;;;18.77;55.51;99836.13;5078395;28;45929;-77
2021/07/06 06:33:06;;;;;;;;;2.00;1.00;;;;;18.78;55.41;99855.53;5077932;28;45603;-76
2021/07/06 06:35:32;;;;;;;;;2.00;1.00;;;;;18.78;55.74;99864.31;5077196;28;45679;-80
2021/07/06 06:37:58;;;;;;;;;1.50;1.00;;;;;18.69;55.12;99854.75;5076761;28;45595;-79
2021/07/06 06:40:24;;;;;;;;;1.75;1.75;;;;;18.70;54.92;99863.53;5076854;28;45663;-77
2021/07/06 06:49:34;;;;;;;;;2.00;1.25;;;;;18.68;55.08;99881.47;5079295;27;45805;-81
2021/07/06 06:52:00;;;;;;;;;1.00;1.00;;;;;18.65;55.46;99880.00;5084003;28;45664;-79
2021/07/06 06:54:25;;;;;;;;;3.75;1.25;;;;;18.69;55.28;99875.16;5084124;28;45520;-78
2021/07/06 06:56:50;;;;;;;;;2.00;1.00;;;;;18.70;54.83;99887.44;5082601;28;46159;-77
2021/07/06 06:59:16;;;;;;;;;2.00;2.00;;;;;18.68;55.18;99892.91;5078830;28;45769;-77
2021/07/06 07:01:43;;;;;;;;;3.00;2.00;;;;;18.70;55.63;99893.56;5076923;28;45499;-78
2021/07/06 07:04:09;;;;;;;;;2.75;1.50;;;;;18.71;55.06;99900.53;5076605;28;45588;-79
2021/07/06 07:06:34;;;;;;;;;2.50;2.00;;;;;18.73;55.46;99905.66;5058386;28;46046;-79
2021/07/06 07:09:03;;;;;;;;;2.00;1.00;;;;;18.71;55.38;99889.09;5076245;28;45451;-78
2021/07/06 07:11:29;;;;;;;;;2.25;2.00;;;;;18.68;55.79;99889.41;5076387;28;45808;-79
2021/07/06 07:13:54;;;;;;;;;4.75;3.00;;;;;18.76;55.99;99906.13;5076752;28;45704;-78
2021/07/06 07:16:19;;;;;;;;;2.00;2.00;;;;;18.78;55.49;99905.94;5076086;28;45717;-79
2021/07/06 07:18:45;;;;;;;;;2.75;2.00;;;;;18.80;55.61;99898.63;5076608;28;45514;-79
2021/07/06 07:21:11;;;;;;;;;4.25;2.00;;;;;18.79;55.30;99907.56;5076664;28;45763;-78
2021/07/06 07:23:37;;;;;;;;;3.00;1.00;;;;;18.82;55.48;99917.84;5075985;28;46514;-78
2021/07/06 07:26:02;;;;;;;;;3.00;2.00;;;;;18.82;55.51;99917.84;5076380;28;46207;-80
2021/07/06 07:28:28;;;;;;;;;4.25;3.00;;;;;18.77;55.46;99925.53;5077051;28;45592;-80
2021/07/06 07:30:54;;;;;;;;;2.00;2.00;;;;;18.74;55.81;99915.25;5077119;28;45522;-80
2021/07/06 07:33:19;;;;;;;;;2.00;2.00;;;;;18.71;55.46;99907.66;5079379;28;45456;-80
2021/07/06 07:35:45;;;;;;;;;3.25;1.50;;;;;18.85;55.40;99934.25;5079861;28;47131;-79
2021/07/06 07:38:10;;;;;;;;;6.00;2.00;;;;;18.85;55.37;99930.75;5079831;28;46092;-78
2021/07/06 07:40:36;;;;;;;;;3.00;2.75;;;;;18.91;55.09;99931.88;5061642;28;45889;-77
2021/07/06 07:43:06;;;;;;;;;3.00;2.50;;;;;18.89;55.49;99924.09;5082569;28;46292;-78
2021/07/06 07:48:53;;;;;;;;;2.50;2.00;;;;;18.94;55.09;99940.31;5082079;28;45639;-79
2021/07/06 07:51:19;;;;;;;;;3.25;2.00;;;;;18.98;55.60;99941.59;5061785;28;45518;-78
2021/07/06 07:53:46;;;;;;;;;4.00;2.50;;;;;19.03;55.34;99949.03;5079151;28;47590;-79
2021/07/06 07:56:14;;;;;;;;;1.00;1.00;;;;;19.07;55.30;99942.34;5073873;28;47265;-77
2021/07/06 07:58:40;;;;;;;;;1.50;1.25;;;;;19.10;55.57;99944.66;5074594;28;45876;-75
2021/07/06 08:01:05;;;;;;;;;4.50;2.00;;;;;19.13;55.35;99945.09;5075531;28;45798;-78
2021/07/06 08:03:31;;;;;;;;;7.00;3.50;;;;;19.16;55.18;99946.59;5073770;28;46527;-76
2021/07/06 08:06:00;;;;;;;;;3.50;2.00;;;;;19.20;54.93;99951.38;5075024;28;47157;-75
2021/07/06 08:08:26;;;;;;;;;2.00;2.00;;;;;19.17;54.97;99948.22;5075475;28;45667;-79
2021/07/06 08:10:57;;;;;;;;;3.00;2.00;;;;;19.22;54.87;99964.44;5075411;28;45801;-80
2021/07/06 08:13:24;;;;;;;;;1.50;1.25;;;;;19.21;55.45;99962.81;5074307;28;46417;-80
2021/07/06 08:19:12;;;;;;;;;3.00;2.00;;;;;19.18;54.78;99976.44;5075320;28;45686;-82
2021/07/06 08:21:37;;;;;;;;;3.00;1.25;;;;;19.23;54.66;99984.69;5074777;28;45968;-81
2021/07/06 08:24:03;;;;;;;;;3.00;2.25;;;;;19.10;54.87;99968.56;5075200;28;46421;-80
2021/07/06 08:26:28;;;;;;;;;2.50;2.50;;;;;19.21;54.59;99984.06;5074836;28;45723;-80
2021/07/06 08:28:54;;;;;;;;;4.00;2.00;;;;;19.22;54.83;100002.44;5075012;28;45739;-80
2021/07/06 08:31:20;;;;;;;;;4.00;3.75;;;;;19.18;54.41;99997.69;5075878;28;45580;-85
2021/07/06 08:33:46;;;;;;;;;4.25;2.00;;;;;19.24;54.53;100011.06;5077260;28;45933;-83
2021/07/06 08:36:11;;;;;;;;;2.75;2.75;;;;;19.25;54.96;100007.41;5078902;28;45934;-87
2021/07/06 08:38:39;;;;;;;;;5.00;3.00;;;;;19.23;55.08;100000.63;5079470;28;45541;-86
2021/07/06 08:41:05;;;;;;;;;2.75;2.25;;;;;19.29;54.94;100011.38;5076549;28;45579;-89
2021/07/06 08:43:31;;;;;;;;;4.75;2.00;;;;;19.32;54.58;100015.50;5061196;28;45571;-80
2021/07/06 08:49:22;;;;;;;;;2.25;1.00;;;;;19.40;54.55;100020.72;5077197;28;45463;-81
2021/07/06 08:51:52;;;;;;;;;3.50;2.75;;;;;19.44;54.33;100029.97;5074971;28;45530;-90
2021/07/06 08:54:18;;;;;;;;;2.00;1.25;;;;;19.42;54.95;100021.38;5075083;28;45629;-80
2021/07/06 08:56:44;;;;;;;;;0.50;0.50;;;;;19.47;54.22;100027.00;5074406;28;46010;-78
2021/07/06 08:59:10;;;;;;;;;1.75;1.75;;;;;19.48;54.44;100026.00;5074111;28;45869;-79
2021/07/06 09:01:35;;;;;;;;;5.00;2.50;;;;;19.42;53.95;100021.38;5074525;28;45642;-80
2021/07/06 09:04:03;;;;;;;;;2.25;1.75;;;;;19.56;53.85;100046.34;5074247;28;46449;-79
2021/07/06 09:06:31;;;;;;;;;2.00;1.50;;;;;19.38;53.50;100022.72;5074716;28;45946;-80
2021/07/06 09:09:15;;;;;;;;;1.50;1.25;;;;;19.51;53.50;100043.41;5076571;28;45595;-80
2021/07/06 09:11:46;;;;;;;;;2.25;1.75;;;;;19.43;53.90;100035.50;5078759;28;45628;-79
2021/07/06 09:14:12;;;;;;;;;2.50;2.00;;;;;19.49;53.88;100053.38;5078280;28;46439;-79
2021/07/06 09:16:37;;;;;;;;;3.25;1.50;;;;;19.50;54.16;100042.59;5078134;28;46881;-79
2021/07/06 09:19:16;;;;;;;;;2.75;1.50;;;;;19.56;53.91;100046.34;5078308;28;45624;-80
2021/07/06 09:21:42;;;;;;;;;3.25;2.25;;;;;19.59;54.08;100051.31;5078397;28;45672;-79
2021/07/06 09:24:20;;;;;;;;;0.50;0.50;;;;;19.57;53.28;100055.97;5077670;28;47627;-80
2021/07/06 09:26:46;;;;;;;;;2.25;2.25;;;;;19.62;53.78;100054.44;5077870;28;46390;-79
2021/07/06 09:35:28;;;;;;;;;1.75;1.00;;;;;19.53;53.61;100054.69;5077692;28;45517;-79
2021/07/06 09:38:04;;;;;;;;;2.75;2.00;;;;;19.55;53.71;100055.31;5077963;28;45843;-80
2021/07/06 09:40:31;;;;;;;;;0.50;0.50;;;;;19.57;53.20;100058.63;5078306;28;45540;-80
2021/07/06 09:43:15;;;;;;;;;3.25;1.75;;;;;19.58;53.41;100058.47;5078610;28;45515;-79
2021/07/06 09:45:45;;;;;;;;;2.25;0.75;;;;;19.61;53.16;100050.13;5077993;28;45667;-80
2021/07/06 09:48:11;;;;;;;;;1.50;1.50;;;;;19.60;53.24;100045.81;5078746;28;46009;-80
2021/07/06 09:50:36;;;;;;;;;0.75;0.50;;;;;19.59;52.82;100033.56;5078610;28;45635;-80
2021/07/06 09:53:02;;;;;;;;;0.50;0.50;;;;;19.74;52.94;100054.81;5081543;28;45505;-80
2021/07/06 09:55:31;;;;;;;;;1.75;1.00;;;;;19.74;52.55;100046.03;5084078;28;45832;-79
2021/07/06 09:57:57;;;;;;;;;1.00;1.00;;;;;19.84;52.00;100062.53;5084399;28;46008;-79
2021/07/06 10:00:23;;;;;;;;;2.00;1.00;;;;;19.89;51.83;100049.50;5084662;28;45634;-80
2021/07/06 10:02:49;;;;;;;;;1.75;0.75;;;;;19.96;51.99;100058.41;5084282;28;45582;-79
2021/07/06 10:05:18;;;;;;;;;0.25;0.00;;;;;20.00;51.95;100065.84;5081624;28;45693;-79
2021/07/06 10:07:43;;;;;;;;;1.00;1.00;;;;;20.10;51.65;100068.22;5077398;28;45948;-78
2021/07/06 10:10:15;;;;;;;;;0.75;0.75;;;;;20.17;51.01;100076.31;5077660;28;45599;-78
2021/07/06 10:12:43;;;;;;;;;1.00;1.00;;;;;20.20;51.13;100074.09;5077978;28;45534;-79
2021/07/06 10:15:10;;;;;;;;;0.75;0.75;;;;;20.22;50.84;100076.56;5077236;28;45641;-80
2021/07/06 10:17:37;;;;;;;;;3.00;1.00;;;;;20.26;51.04;100073.34;5077156;28;45558;-80
2021/07/06 10:20:08;;;;;;;;;2.00;1.00;;;;;20.33;51.02;100084.13;5076042;28;45725;-79
2021/07/06 10:22:34;;;;;;;;;2.50;1.25;;;;;20.24;50.77;100082.53;5077165;28;45965;-79
2021/07/06 10:25:01;;;;;;;;;1.50;1.50;;;;;20.37;50.06;100074.75;5077134;28;46240;-80
2021/07/06 10:27:29;;;;;;;;;2.25;2.00;;;;;20.38;49.98;100087.06;5077084;28;46043;-80
2021/07/06 10:30:08;;;;;;;;;1.00;1.00;;;;;20.19;50.13;100061.00;5077083;28;45622;-80
2021/07/06 10:32:38;;;;;;;;;1.00;1.00;;;;;20.43;49.83;100092.66;5077106;28;45804;-80
2021/07/06 10:35:05;;;;;;;;;1.00;1.00;;;;;20.46;50.33;100106.41;5077167;28;45652;-79
2021/07/06 10:37:31;;;;;;;;;2.00;1.00;;;;;20.49;49.19;100094.56;5076790;28;46932;-80
2021/07/06 10:40:16;;;;;;;;;1.00;0.00;;;;;20.49;49.07;100091.91;5077020;28;45658;-80
2021/07/06 10:42:43;;;;;;;;;2.00;1.00;;;;;20.45;48.85;100088.81;5076822;28;45490;-80
2021/07/06 10:45:16;;;;;;;;;2.00;1.00;;;;;20.48;49.81;100099.06;5077092;28;46665;-80
2021/07/06 10:47:46;;;;;;;;;0.75;0.25;;;;;20.46;49.42;100086.94;5058973;28;46773;-80
2021/07/06 10:50:23;;;;;;;;;1.00;1.00;;;;;20.60;49.71;100110.06;5076971;28;45733;-80
2021/07/06 10:53:19;;;;;;;;;1.75;1.75;;;;;20.63;49.38;100098.19;5076782;28;45663;-78
2021/07/06 10:55:56;;;;;;;;;2.25;1.00;;;;;20.66;49.39;100100.50;5076364;28;47327;-82
2021/07/06 10:58:52;;;;;;;;;1.50;1.25;;;;;20.75;49.59;100108.19;5076644;28;46065;-80
2021/07/06 11:01:36;;;;;;;;;1.00;1.00;;;;;20.81;49.23;100106.63;5076895;28;45688;-80
2021/07/06 11:04:10;;;;;;;;;2.00;1.00;;;;;20.85;49.50;100123.88;5054410;28;45475;-80
2021/07/06 11:07:12;;;;;;;;;1.75;1.75;;;;;20.89;49.58;100107.31;5056409;28;46272;-81
2021/07/06 11:09:38;;;;;;;;;0.25;0.25;;;;;20.93;49.36;100091.81;5017133;28;48449;-80
2021/07/06 11:12:21;;;;;;;;;2.00;1.00;;;;;20.99;48.68;100117.69;5016920;28;45734;-79
2021/07/06 11:18:01;;;;;;;;;1.00;1.00;;;;;21.09;48.93;100117.38;5033774;28;45693;-79
2021/07/06 11:20:44;;;;;;;;;1.00;1.00;;;;;21.17;48.56;100104.78;5033606;28;45965;-78
2021/07/06 11:23:34;;;;;;;;;1.00;1.00;;;;;21.24;48.69;100126.19;5033529;28;45680;-80
2021/07/06 11:26:04;;;;;;;;;1.00;1.00;;;;;21.24;48.14;100118.19;5033734;28;45821;-79
2021/07/06 11:28:30;;;;;;;;;1.25;1.00;;;;;21.25;48.22;100104.69;5033436;28;46596;-79
2021/07/06 11:34:19;;;;;;;;;1.00;0.00;;;;;21.31;47.79;100113.75;5033321;28;45558;-80
2021/07/06 11:36:46;;;;;;;;;2.00;2.00;;;;;21.39;47.65;100128.78;5033411;28;45563;-81
2021/07/06 11:39:12;;;;;;;;;2.00;0.50;;;;;21.46;47.74;100121.69;5016900;28;45592;-80
2021/07/06 11:41:40;;;;;;;;;0.25;0.25;;;;;21.32;47.42;100112.75;5033790;28;46615;-80
2021/07/06 11:44:05;;;;;;;;;2.00;1.00;;;;;21.48;47.64;100125.81;5033553;28;45680;-81
2021/07/06 11:49:52;;;;;;;;;2.75;2.00;;;;;21.65;47.10;100147.69;5055431;28;45696;-81
2021/07/06 11:52:18;;;;;;;;;2.00;1.25;;;;;21.69;47.77;100135.63;5055730;28;45989;-81
2021/07/06 11:54:43;;;;;;;;;0.75;0.25;;;;;21.68;47.48;100124.13;5055533;28;45655;-78
2021/07/06 11:57:09;;;;;;;;;1.00;1.00;;;;;21.78;46.94;100103.28;5056301;28;45569;-80
2021/07/06 11:59:36;;;;;;;;;1.25;1.00;;;;;21.84;46.78;100148.88;5058782;28;46507;-80
2021/07/06 12:05:36;;;;;;;;;1.00;1.00;;;;;21.89;45.83;100119.78;5073708;28;45741;-80
2021/07/06 12:08:15;;;;;;;;;1.00;1.00;;;;;21.91;46.41;100121.25;5064870;28;45889;-80
2021/07/06 12:11:06;;;;;;;;;1.00;1.00;;;;;21.98;46.18;100119.47;5083171;28;46704;-80
2021/07/06 12:13:34;;;;;;;;;1.00;0.25;;;;;22.04;45.29;100126.69;5081005;28;45694;-80
2021/07/06 12:16:03;;;;;;;;;1.00;1.00;;;;;21.98;44.68;100114.13;5075556;28;45522;-79
2021/07/06 12:18:33;;;;;;;;;1.00;1.00;;;;;22.10;44.97;100146.44;5057204;28;45588;-80
2021/07/06 12:21:07;;;;;;;;;1.50;1.00;;;;;22.13;44.23;100135.38;5075526;28;45533;-81
2021/07/06 12:23:44;;;;;;;;;0.25;0.25;;;;;22.15;45.33;100130.66;5075636;28;45831;-81
2021/07/06 12:26:09;;;;;;;;;1.50;1.00;;;;;;;;5074930;28;45704;-80
2021/07/06 12:28:35;;;;;;;;;1.50;0.25;;;;;22.22;45.01;100131.53;5075225;28;45517;-80
2021/07/06 12:31:17;;;;;;;;;0.75;0.50;;;;;;;;5075038;28;47199;-79
2021/07/06 12:33:44;;;;;;;;;2.00;1.00;;;;;22.21;44.52;100137.06;5074964;28;46337;-79
2021/07/06 12:36:10;;;;;;;;;1.00;0.75;;;;;22.22;44.21;100131.53;5075120;28;45640;-80
2021/07/06 12:38:37;;;;;;;;;1.00;1.00;;;;;22.22;43.82;100152.88;5075125;28;45540;-81
2021/07/06 12:41:16;;;;;;;;;1.00;1.00;;;;;22.24;43.71;100144.69;5075205;28;45580;-81
2021/07/06 12:43:41;;;;;;;;;2.00;1.00;;;;;22.26;43.54;100140.78;5055667;28;47113;-80
2021/07/06 12:46:07;;;;;;;;;1.00;1.00;;;;;22.31;43.32;100149.03;5074737;28;45545;-81
2021/07/06 12:48:35;;;;;;;;;2.00;1.00;;;;;22.37;44.06;100156.25;5056281;28;45797;-81
2021/07/06 12:51:10;;;;;;;;;1.00;1.00;;;;;22.47;43.44;100151.38;5074675;28;46707;-80
2021/07/06 12:53:35;;;;;;;;;1.00;1.00;;;;;22.53;43.45;100155.13;5074871;28;46181;-81